Time;durP1;ratioP1;P1;durP2;ratioP2;P2;SDS_P1;SDS_P2;PMS_P1;PMS_P2;Temp;Humidity;BMP_temperature;BMP_pressure;BME280_temperature;BME280_humidity;BME280_pressure;Samples;Min_cycle;Max_cycle;Signal;HPM_P1;HPM_P2
2022/03/16 00:01:15;;;;;;;15.77;7.77;;;;;;;-3.90;100.00;102430.41;1721272;83;21590;-61
2022/03/16 00:03:42;;;;;;;19.97;7.57;;;;;;;-3.91;100.00;102432.48;1721428;83;21072;-62
2022/03/16 00:06:08;;;;;;;17.80;7.50;;;;;;;-3.96;100.00;102420.47;1721687;82;20995;-61
2022/03/16 00:08:36;;;;;;;16.80;7.93;;;;;;;-4.01;100.00;102419.01;1714353;83;21035;-61
2022/03/16 00:11:05;;;;;;;18.10;7.50;;;;;;;-4.03;100.00;102420.59;1712402;83;21051;-61
2022/03/16 00:13:33;;;;;;;18.63;7.67;;;;;;;-4.06;100.00;102420.44;1712391;84;21051;-62
2022/03/16 00:16:00;;;;;;;21.60;9.10;;;;;;;-4.11;100.00;102420.63;1712412;84;21012;-61
2022/03/16 00:18:28;;;;;;;26.03;10.30;;;;;;;-4.17;100.00;102422.86;1712487;83;21067;-61
2022/03/16 00:20:56;;;;;;;25.80;10.90;;;;;;;-4.25;100.00;102417.06;1712321;84;21047;-61
2022/03/16 00:23:23;;;;;;;25.37;11.20;;;;;;;-4.27;100.00;102414.86;1712646;84;21086;-60
2022/03/16 00:25:49;;;;;;;26.40;11.00;;;;;;;-4.31;100.00;102418.02;1712385;84;21035;-61
2022/03/16 00:28:16;;;;;;;24.27;9.40;;;;;;;-4.37;100.00;102414.36;1712355;84;21047;-61
2022/03/16 00:30:42;;;;;;;21.33;10.47;;;;;;;-4.46;100.00;102413.50;1712616;83;21039;-61
2022/03/16 00:33:11;;;;;;;20.80;9.93;;;;;;;-4.54;100.00;102405.63;1712316;84;21045;-61
2022/03/16 00:35:38;;;;;;;21.40;9.70;;;;;;;-4.60;100.00;102407.84;1712588;83;20987;-61
2022/03/16 00:38:05;;;;;;;23.43;10.47;;;;;;;-4.56;100.00;102405.94;1712482;84;21556;-62
2022/03/16 00:40:36;;;;;;;22.60;10.73;;;;;;;-4.55;100.00;102402.63;1712255;84;21043;-62
2022/03/16 00:43:03;;;;;;;21.03;10.03;;;;;;;-4.57;100.00;102401.69;1712568;84;21039;-62
2022/03/16 00:45:30;;;;;;;21.37;10.20;;;;;;;-4.61;100.00;102401.48;1699480;84;21078;-62
2022/03/16 00:47:56;;;;;;;21.80;10.80;;;;;;;-4.69;100.00;102402.35;1712571;84;21042;-61
2022/03/16 00:50:23;;;;;;;21.07;9.40;;;;;;;-4.73;100.00;102397.97;1712456;83;21515;-61
2022/03/16 00:52:51;;;;;;;17.70;9.27;;;;;;;-4.67;100.00;102392.84;1710833;84;21051;-61
2022/03/16 00:55:18;;;;;;;15.10;8.20;;;;;;;-4.71;100.00;102394.73;1712377;83;21052;-62
2022/03/16 00:57:45;;;;;;;19.00;8.77;;;;;;;-4.73;100.00;102401.73;1712267;84;21051;-61
2022/03/16 01:00:13;;;;;;;22.70;9.40;;;;;;;-4.72;100.00;102394.69;1712526;84;21090;-62
2022/03/16 01:02:41;;;;;;;18.97;8.77;;;;;;;-4.72;100.00;102399.70;1712832;83;21015;-63
2022/03/16 01:05:09;;;;;;;17.33;8.90;;;;;;;-4.73;100.00;102401.33;1712296;83;21039;-61
2022/03/16 01:07:36;;;;;;;18.60;9.30;;;;;;;-4.75;100.00;102404.56;1713985;83;21087;-61
2022/03/16 01:10:05;;;;;;;28.20;12.43;;;;;;;-4.85;100.00;102404.09;1721045;83;21054;-61
2022/03/16 01:12:32;;;;;;;32.43;13.13;;;;;;;-4.80;100.00;102403.09;1721524;83;21015;-60
2022/03/16 01:14:59;;;;;;;33.27;13.97;;;;;;;-4.77;100.00;102399.45;1721076;83;21579;-61
2022/03/16 01:17:27;;;;;;;36.60;16.40;;;;;;;-4.75;100.00;102404.56;1721030;83;21050;-61
2022/03/16 01:19:57;;;;;;;41.87;17.23;;;;;;;-4.80;100.00;102399.33;1703532;83;21457;-61
2022/03/16 01:22:23;;;;;;;31.67;15.10;;;;;;;-4.85;100.00;102407.87;1720918;83;21085;-61
2022/03/16 01:24:51;;;;;;;34.20;14.67;;;;;;;-4.89;100.00;102405.14;1702845;83;21035;-61
2022/03/16 01:27:19;;;;;;;34.57;14.57;;;;;;;-4.93;100.00;102403.26;1721044;83;21039;-61
2022/03/16 01:29:46;;;;;;;30.20;13.57;;;;;;;-5.02;100.00;102404.07;1720907;83;21007;-62
2022/03/16 01:32:14;;;;;;;36.30;15.17;;;;;;;-5.08;100.00;102398.34;1721063;83;21551;-61
2022/03/16 01:34:41;;;;;;;30.63;14.17;;;;;;;-5.09;100.00;102396.23;1721040;83;21011;-61
2022/03/16 01:37:08;;;;;;;28.67;12.97;;;;;;;-5.09;100.00;102395.34;1721046;83;21067;-61
2022/03/16 01:39:35;;;;;;;30.13;12.87;;;;;;;-5.13;100.00;102392.21;1720991;83;21035;-61
2022/03/16 01:42:02;;;;;;;27.47;13.20;;;;;;;-5.18;100.00;102391.13;1721204;83;21042;-61
2022/03/16 01:44:48;;;;;;;28.90;13.53;;;;;;;-5.20;100.00;102387.28;1720937;83;21082;-61
2022/03/16 01:47:18;;;;;;;31.13;13.50;;;;;;;-5.24;100.00;102396.30;1720997;83;21142;-61
2022/03/16 01:49:49;;;;;;;27.57;12.83;;;;;;;-5.21;100.00;102399.75;1721177;83;21031;-60
2022/03/16 01:52:23;;;;;;;29.47;12.10;;;;;;;-5.22;100.00;102399.30;1721210;83;21043;-60
2022/03/16 01:54:52;;;;;;;20.43;9.00;;;;;;;-5.26;100.00;102400.38;1679942;83;21074;-60
2022/03/16 01:57:20;;;;;;;22.17;10.40;;;;;;;-5.20;100.00;102395.22;1720925;83;21031;-60
2022/03/16 01:59:47;;;;;;;25.27;11.70;;;;;;;-5.04;100.00;102397.31;1721226;82;21035;-60
2022/03/16 02:02:15;;;;;;;27.20;12.17;;;;;;;-5.11;100.00;102391.53;1720883;83;21015;-61
2022/03/16 02:04:44;;;;;;;24.70;12.70;;;;;;;-5.15;100.00;102388.77;1721313;83;21027;-60
2022/03/16 02:07:11;;;;;;;30.00;13.13;;;;;;;-5.13;100.00;102389.70;1720979;82;21582;-60
2022/03/16 02:09:39;;;;;;;29.17;12.70;;;;;;;-5.20;100.00;102396.06;1691267;84;21091;-61
2022/03/16 02:12:12;;;;;;;30.70;12.47;;;;;;;-5.28;100.00;102400.69;1716949;83;21055;-61
2022/03/16 02:14:40;;;;;;;;;;;;;;;-5.37;100.00;102396.84;1693444;84;21519;-61
2022/03/16 02:17:08;;;;;;;35.40;13.23;;;;;;;-5.38;100.00;102395.13;1716863;83;20100;-61
2022/03/16 02:19:36;;;;;;;45.93;16.47;;;;;;;-5.41;100.00;102394.95;1716791;84;21074;-61
2022/03/16 02:22:05;;;;;;;39.50;16.40;;;;;;;-5.41;100.00;102397.09;1716771;83;21555;-61
2022/03/16 02:24:32;;;;;;;33.40;13.40;;;;;;;-5.42;100.00;102401.63;1717239;83;21507;-61
2022/03/16 02:26:59;;;;;;;19.70;9.87;;;;;;;-5.45;100.00;102393.56;1716904;83;21047;-61
2022/03/16 02:29:28;;;;;;;25.80;12.20;;;;;;;-5.18;100.00;102394.50;1717023;83;21543;-61
2022/03/16 02:31:55;;;;;;;27.97;12.77;;;;;;;-5.11;100.00;102399.42;1716849;83;21059;-61
2022/03/16 02:34:24;;;;;;;35.87;16.17;;;;;;;-5.11;100.00;102405.34;1716734;83;21117;-61
2022/03/16 02:36:52;;;;;;;34.73;15.50;;;;;;;-5.25;100.00;102397.50;1717032;83;21023;-61
2022/03/16 02:39:19;;;;;;;33.47;14.87;;;;;;;-5.34;100.00;102405.80;1716871;83;21039;-61
2022/03/16 02:41:50;;;;;;;35.47;15.43;;;;;;;-5.36;100.00;102402.34;1716891;83;21039;-61
2022/03/16 02:44:17;;;;;;;34.03;15.00;;;;;;;-5.37;100.00;102401.86;1691154;83;21067;-61
2022/03/16 02:46:45;;;;;;;36.20;15.37;;;;;;;-5.42;100.00;102399.52;1716828;83;21146;-61
2022/03/16 02:49:12;;;;;;;31.53;14.30;;;;;;;-5.47;100.00;102401.80;1716985;83;21480;-60
2022/03/16 02:51:39;;;;;;;35.50;15.30;;;;;;;-5.49;100.00;102395.84;1716715;84;21035;-61
2022/03/16 02:54:06;;;;;;;38.33;16.30;;;;;;;-5.47;100.00;102400.15;1717082;83;21000;-61
2022/03/16 02:56:33;;;;;;;41.17;17.23;;;;;;;-5.54;100.00;102405.62;1716815;84;21086;-61
2022/03/16 02:59:03;;;;;;;37.97;17.33;;;;;;;-5.64;100.00;102399.28;1716774;83;21051;-61
2022/03/16 03:01:30;;;;;;;48.47;20.13;;;;;;;-5.61;100.00;102396.06;1716954;83;21090;-61
2022/03/16 03:03:58;;;;;;;49.33;20.83;;;;;;;-5.66;100.00;102391.17;1716828;83;21059;-61
2022/03/16 03:06:25;;;;;;;41.43;18.70;;;;;;;-5.67;100.00;102392.83;1716960;83;21071;-61
2022/03/16 03:08:53;;;;;;;45.07;19.53;;;;;;;-5.68;100.00;102387.72;1714378;83;21055;-61
2022/03/16 03:11:20;;;;;;;42.57;19.13;;;;;;;-5.70;100.00;102383.02;1712264;84;21084;-61
2022/03/16 03:13:47;;;;;;;37.13;17.20;;;;;;;-5.89;100.00;102388.72;1712314;84;21567;-61
2022/03/16 03:16:15;;;;;;;42.47;18.83;;;;;;;-5.91;100.00;102386.13;1712272;83;21051;-60
2022/03/16 03:18:42;;;;;;;46.47;19.17;;;;;;;-5.85;100.00;102383.08;1712484;84;21088;-61
2022/03/16 03:21:08;;;;;;;37.17;16.77;;;;;;;-5.87;100.00;102380.48;1712267;83;21082;-61
2022/03/16 03:23:35;;;;;;;32.33;14.90;;;;;;;-5.84;100.00;102387.30;1712261;83;21051;-61
2022/03/16 03:26:02;;;;;;;31.97;14.13;;;;;;;-5.86;100.00;102386.36;1712285;83;21018;-60
2022/03/16 03:28:29;;;;;;;32.00;15.07;;;;;;;-5.88;100.00;102383.79;1712385;84;21551;-61
2022/03/16 03:30:56;;;;;;;33.83;15.27;;;;;;;-5.80;100.00;102382.06;1712485;84;21037;-61
2022/03/16 03:33:24;;;;;;;33.23;15.77;;;;;;;-5.79;100.00;102388.42;1712211;83;21079;-61
2022/03/16 03:35:51;;;;;;;35.23;14.83;;;;;;;-5.81;100.00;102386.22;1712265;84;21496;-60
2022/03/16 03:38:19;;;;;;;32.37;15.83;;;;;;;-5.79;100.00;102394.70;1712480;83;21079;-61
2022/03/16 03:40:46;;;;;;;35.10;15.53;;;;;;;-5.77;100.00;102394.78;1712252;84;21047;-61
2022/03/16 03:43:13;;;;;;;27.27;12.90;;;;;;;-5.80;100.00;102395.86;1712149;84;21524;-60
2022/03/16 03:45:40;;;;;;;29.43;13.47;;;;;;;-5.72;100.00;102395.47;1712372;84;21035;-61
2022/03/16 03:48:07;;;;;;;36.47;15.57;;;;;;;-5.72;100.00;102387.95;1712422;83;21043;-61
2022/03/16 03:50:35;;;;;;;40.97;16.43;;;;;;;-5.64;100.00;102389.61;1712581;84;21071;-60
2022/03/16 03:53:02;;;;;;;35.73;14.93;;;;;;;-5.66;100.00;102387.41;1712391;84;21035;-61
2022/03/16 03:55:29;;;;;;;36.60;14.77;;;;;;;-5.68;100.00;102391.48;1712591;84;20999;-61
2022/03/16 03:57:57;;;;;;;34.60;15.33;;;;;;;-5.64;100.00;102398.02;1712517;83;21531;-60
2022/03/16 04:00:24;;;;;;;26.43;13.47;;;;;;;-5.60;100.00;102404.04;1712323;84;21027;-61
2022/03/16 04:02:53;;;;;;;27.67;13.10;;;;;;;-5.63;100.00;102403.90;1712315;83;21044;-60
2022/03/16 04:05:20;;;;;;;28.27;13.37;;;;;;;-5.62;100.00;102399.34;1712612;83;21012;-60
2022/03/16 04:07:52;;;;;;;29.97;13.87;;;;;;;-5.55;100.00;102400.14;1712508;83;21008;-60
2022/03/16 04:10:18;;;;;;;27.77;13.27;;;;;;;-5.48;100.00;102407.19;1712499;83;21052;-61
2022/03/16 04:12:45;;;;;;;31.73;14.17;;;;;;;-5.45;100.00;102404.86;1699372;84;21039;-61
2022/03/16 04:15:12;;;;;;;29.83;14.13;;;;;;;-5.37;100.00;102410.64;1712526;84;21045;-61
2022/03/16 04:17:39;;;;;;;31.73;14.43;;;;;;;-5.34;100.00;102404.55;1699371;84;21047;-60
2022/03/16 04:20:08;;;;;;;31.23;15.67;;;;;;;-5.32;100.00;102404.23;1712614;83;21035;-61
2022/03/16 04:22:36;;;;;;;29.70;14.93;;;;;;;-5.32;100.00;102408.00;1712594;83;21142;-61
2022/03/16 04:25:04;;;;;;;29.87;14.53;;;;;;;-5.28;100.00;102409.48;1712246;83;21070;-61
2022/03/16 04:27:31;;;;;;;25.80;14.23;;;;;;;-5.23;100.00;102414.76;1712496;83;21078;-61
2022/03/16 04:29:58;;;;;;;26.30;12.80;;;;;;;-5.20;100.00;102409.87;1699256;84;20996;-60
2022/03/16 04:32:25;;;;;;;22.57;11.83;;;;;;;-5.14;100.00;102417.72;1712546;83;21074;-60
2022/03/16 04:34:52;;;;;;;16.87;9.13;;;;;;;-5.02;100.00;102412.86;1712301;84;21043;-60
2022/03/16 04:37:18;;;;;;;13.30;7.70;;;;;;;-4.87;100.00;102416.13;1712349;83;21047;-60
2022/03/16 04:39:45;;;;;;;12.03;6.77;;;;;;;-4.72;100.00;102414.38;1712594;83;21031;-60
2022/03/16 04:42:14;;;;;;;11.80;7.07;;;;;;;-4.54;100.00;102417.30;1712569;84;21515;-61
2022/03/16 04:44:41;;;;;;;10.63;6.20;;;;;;;-4.32;100.00;102417.58;1712577;83;21032;-61
2022/03/16 04:47:08;;;;;;;10.47;6.57;;;;;;;-4.14;100.00;102419.21;1712354;83;21083;-60
2022/03/16 04:49:36;;;;;;;11.67;6.50;;;;;;;-4.02;100.00;102423.16;1712333;84;21579;-60
2022/03/16 04:52:05;;;;;;;13.00;6.60;;;;;;;-3.93;100.00;102418.97;1712484;83;21047;-60
2022/03/16 04:54:31;;;;;;;12.13;7.53;;;;;;;-3.82;100.00;102425.33;1712639;84;21019;-61
2022/03/16 04:56:58;;;;;;;10.77;6.90;;;;;;;-3.73;100.00;102420.25;1712338;84;21488;-61
2022/03/16 04:59:25;;;;;;;11.23;6.67;;;;;;;-3.58;100.00;102420.10;1712531;84;21574;-60
2022/03/16 05:01:53;;;;;;;10.93;6.50;;;;;;;-3.51;100.00;102432.15;1712375;83;21141;-61
2022/03/16 05:04:20;;;;;;;8.60;5.80;;;;;;;-3.47;100.00;102432.38;1712435;84;21047;-61
2022/03/16 05:06:48;;;;;;;9.97;6.50;;;;;;;-3.44;100.00;102424.09;1712358;84;21043;-61
2022/03/16 05:09:17;;;;;;;10.37;6.73;;;;;;;-3.35;100.00;102433.29;1716267;83;21026;-61
2022/03/16 05:11:45;;;;;;;12.57;6.50;;;;;;;-3.29;100.00;102427.27;1721492;83;21488;-60
2022/03/16 05:14:12;;;;;;;10.90;6.40;;;;;;;-3.24;100.00;102432.11;1721539;83;21038;-60
2022/03/16 05:16:39;;;;;;;11.73;6.93;;;;;;;-3.15;100.00;102426.61;1721706;83;21011;-61
2022/03/16 05:19:06;;;;;;;12.73;6.63;;;;;;;-3.10;100.00;102430.20;1721545;82;21555;-61
2022/03/16 05:21:33;;;;;;;13.60;6.87;;;;;;;-3.03;100.00;102428.39;1721753;83;21055;-62
2022/03/16 05:24:00;;;;;;;10.13;6.10;;;;;;;-2.99;100.00;102431.91;1721561;83;21031;-61
2022/03/16 05:26:27;;;;;;;11.13;6.70;;;;;;;-2.96;100.00;102434.95;1721424;83;21011;-60
2022/03/16 05:28:57;;;;;;;12.07;6.67;;;;;;;-2.91;100.00;102431.83;1721727;83;21031;-61
2022/03/16 05:31:23;;;;;;;9.70;6.13;;;;;;;-2.87;100.00;102439.98;1721515;83;21535;-61
2022/03/16 05:33:50;;;;;;;9.80;6.03;;;;;;;-2.79;100.00;102440.31;1721432;83;21069;-61
2022/03/16 05:36:17;;;;;;;10.57;6.70;;;;;;;-2.82;100.00;102445.21;1721523;83;21058;-61
2022/03/16 05:38:46;;;;;;;10.43;6.13;;;;;;;-2.77;100.00;102446.69;1721453;83;21500;-61
2022/03/16 05:41:14;;;;;;;12.67;6.83;;;;;;;-2.78;100.00;102442.02;1721673;83;21075;-60
2022/03/16 05:43:42;;;;;;;11.07;6.60;;;;;;;-2.74;100.00;102445.53;1721611;83;21039;-61
2022/03/16 05:46:09;;;;;;;12.17;7.50;;;;;;;-2.60;100.00;102443.19;1721498;83;21122;-61
2022/03/16 05:48:37;;;;;;;10.10;6.93;;;;;;;-2.63;100.00;102440.14;1721413;83;21022;-60
2022/03/16 05:51:04;;;;;;;11.97;6.47;;;;;;;-2.53;100.00;102445.58;1721715;83;21014;-61
2022/03/16 05:53:31;;;;;;;12.53;6.30;;;;;;;-2.36;100.00;102438.69;1721620;83;21035;-60
2022/03/16 05:55:59;;;;;;;9.83;6.40;;;;;;;-2.38;100.00;102442.40;1721555;83;21031;-61
2022/03/16 05:58:26;;;;;;;13.27;6.37;;;;;;;-2.34;100.00;102442.98;1721493;82;21035;-61
2022/03/16 06:00:53;;;;;;;12.53;6.43;;;;;;;-2.27;100.00;102438.66;1721528;83;21046;-61
2022/03/16 06:03:20;;;;;;;11.37;6.70;;;;;;;-2.13;100.00;102444.63;1721394;83;21051;-61
2022/03/16 06:05:47;;;;;;;10.83;6.63;;;;;;;-2.16;100.00;102443.27;1721705;83;21027;-61
2022/03/16 06:08:15;;;;;;;10.73;6.20;;;;;;;-2.05;100.00;102441.62;1721464;83;21530;-61
2022/03/16 06:10:44;;;;;;;10.43;6.87;;;;;;;-1.91;100.00;102443.80;1720966;82;21043;-61
2022/03/16 06:13:10;;;;;;;11.90;6.67;;;;;;;-1.87;100.00;102446.91;1720957;83;21003;-60
2022/03/16 06:15:42;;;;;;;9.73;6.17;;;;;;;-1.76;100.00;102444.78;1702607;83;21062;-60
2022/03/16 06:18:11;;;;;;;9.60;6.07;;;;;;;-1.66;100.00;102445.62;1721134;83;21503;-61
2022/03/16 06:20:38;;;;;;;13.33;7.20;;;;;;;-1.76;100.00;102442.25;1720908;83;21068;-61
2022/03/16 06:23:06;;;;;;;13.83;7.83;;;;;;;-1.72;100.00;102445.39;1721039;83;21559;-61
2022/03/16 06:25:34;;;;;;;12.90;7.33;;;;;;;-1.66;100.00;102446.87;1720880;83;21063;-61
2022/03/16 06:28:03;;;;;;;11.63;6.83;;;;;;;-1.53;100.00;102442.72;1720897;82;21036;-61
2022/03/16 06:30:31;;;;;;;11.23;6.80;;;;;;;-1.59;100.00;102447.55;1721445;83;21496;-61
2022/03/16 06:32:58;;;;;;;11.03;5.93;;;;;;;-1.57;100.00;102445.94;1721349;83;21480;-61
2022/03/16 06:35:26;;;;;;;11.47;6.70;;;;;;;-1.52;100.00;102446.98;1720858;83;21503;-61
2022/03/16 06:37:53;;;;;;;12.43;6.70;;;;;;;-1.46;100.00;102442.53;1717842;83;21067;-62
2022/03/16 06:40:20;;;;;;;10.97;6.33;;;;;;;-1.34;100.00;102446.77;1707780;83;21000;-62
2022/03/16 06:42:55;;;;;;;12.57;6.70;;;;;;;-1.27;100.00;102450.40;1706006;83;21058;-61
2022/03/16 06:45:26;;;;;;;12.85;6.97;;;;;;;-1.11;100.00;102447.61;1705354;83;20995;-61
2022/03/16 06:47:59;;;;;;;13.60;7.77;;;;;;;-1.02;100.00;102445.80;1706145;83;21404;-61
2022/03/16 06:50:28;;;;;;;17.80;6.70;;;;;;;-0.87;100.00;102450.13;1707369;83;20998;-60
2022/03/16 06:52:57;;;;;;;14.50;7.40;;;;;;;-0.82;100.00;102451.13;1707557;83;21067;-61
2022/03/16 06:55:26;;;;;;;14.30;6.33;;;;;;;-0.73;100.00;102458.19;1705433;83;21034;-60
2022/03/16 06:57:54;;;;;;;9.70;6.03;;;;;;;-0.70;100.00;102451.95;1706060;83;20992;-61
2022/03/16 07:00:21;;;;;;;13.45;6.22;;;;;;;-0.70;100.00;102449.84;1708121;83;20963;-61
2022/03/16 07:03:02;;;;;;;11.43;6.77;;;;;;;-0.69;100.00;102454.07;1700053;83;21031;-60
2022/03/16 07:05:33;;;;;;;6.80;4.87;;;;;;;-0.57;100.00;102444.77;1692374;85;21577;-60
2022/03/16 07:08:07;;;;;;;7.78;4.75;;;;;;;-0.45;100.00;102448.97;1692177;84;20987;-60
2022/03/16 07:10:36;;;;;;;6.97;4.92;;;;;;;-0.51;97.46;102450.03;1692507;85;21018;-60
2022/03/16 07:13:05;;;;;;;9.48;5.72;;;;;;;-0.29;97.30;102452.44;1692379;83;20991;-60
2022/03/16 07:15:32;;;;;;;9.00;5.80;;;;;;;-0.19;98.38;102455.28;1692371;85;21046;-61
2022/03/16 07:18:05;;;;;;;11.00;5.87;;;;;;;-0.26;97.30;102451.29;1692223;84;21519;-60
2022/03/16 07:20:32;;;;;;;9.58;6.00;;;;;;;-0.18;97.58;102455.34;1691994;84;21491;-60
2022/03/16 07:23:09;;;;;;;10.68;5.70;;;;;;;-0.15;98.61;102453.30;1692100;84;21059;-60
2022/03/16 07:25:46;;;;;;;11.53;6.08;;;;;;;-0.04;95.94;102450.67;1692304;85;20987;-61
2022/03/16 07:28:14;;;;;;;9.63;5.30;;;;;;;0.00;95.19;102447.45;1674274;85;21054;-61
2022/03/16 07:30:44;;;;;;;8.73;5.00;;;;;;;0.20;94.65;102449.30;1692311;85;21063;-61
2022/03/16 07:33:13;;;;;;;6.17;3.72;;;;;;;0.37;92.95;102440.95;1692719;84;21142;-60
2022/03/16 07:35:40;;;;;;;7.55;4.35;;;;;;;0.51;88.29;102442.63;1692402;85;21022;-60
2022/03/16 07:38:08;;;;;;;5.70;4.03;;;;;;;0.60;86.82;102442.87;1691711;84;21038;-61
2022/03/16 07:40:37;;;;;;;7.83;3.77;;;;;;;0.65;85.75;102437.53;1691229;84;21609;-62
2022/03/16 07:43:06;;;;;;;4.55;2.72;;;;;;;0.55;82.94;102445.28;1691905;85;21054;-60
2022/03/16 07:45:35;;;;;;;5.53;3.10;;;;;;;0.23;77.45;102440.95;1691438;84;21133;-61
2022/03/16 07:48:03;;;;;;;7.10;3.60;;;;;;;0.51;77.43;102436.29;1691625;85;21024;-61
2022/03/16 07:50:30;;;;;;;5.65;3.00;;;;;;;0.56;79.39;102440.64;1691468;84;21078;-61
2022/03/16 07:52:58;;;;;;;4.12;2.80;;;;;;;0.33;76.30;102441.67;1691282;83;21106;-62
2022/03/16 07:55:27;;;;;;;5.42;3.52;;;;;;;0.33;75.24;102439.14;1691222;84;21594;-61
2022/03/16 07:57:55;;;;;;;5.25;3.52;;;;;;;0.26;75.11;102452.43;1691620;83;21022;-61
2022/03/16 08:00:24;;;;;;;4.17;2.25;;;;;;;0.36;76.36;102445.14;1691438;85;21043;-61
2022/03/16 08:02:55;;;;;;;3.52;2.62;;;;;;;0.47;71.65;102434.48;1700566;83;21054;-61
2022/03/16 08:05:22;;;;;;;5.15;2.80;;;;;;;0.52;72.74;102431.66;1720055;83;21527;-61
2022/03/16 08:07:50;;;;;;;5.78;3.20;;;;;;;0.62;73.37;102425.17;1720218;83;21027;-61
2022/03/16 08:10:18;;;;;;;4.72;2.98;;;;;;;0.66;71.90;102429.52;1716565;83;21528;-61
2022/03/16 08:12:45;;;;;;;5.58;3.10;;;;;;;1.00;72.32;102426.21;1712058;84;21078;-61
2022/03/16 08:15:13;;;;;;;5.72;3.58;;;;;;;0.71;71.09;102430.09;1712228;83;21059;-61
2022/03/16 08:17:41;;;;;;;5.87;3.60;;;;;;;0.54;72.44;102432.14;1712383;84;21044;-61
2022/03/16 08:20:10;;;;;;;6.47;3.72;;;;;;;0.60;73.23;102428.92;1712151;83;21500;-62
2022/03/16 08:22:37;;;;;;;5.25;3.33;;;;;;;0.59;73.34;102433.56;1712620;84;20999;-61
2022/03/16 08:25:08;;;;;;;5.60;2.92;;;;;;;0.76;71.68;102436.13;1712238;84;21004;-61
2022/03/16 08:27:39;;;;;;;4.58;2.90;;;;;;;0.79;70.19;102422.29;1712369;83;21520;-61
2022/03/16 08:30:09;;;;;;;5.30;3.50;;;;;;;1.08;69.58;102426.42;1712464;84;21031;-61
2022/03/16 08:32:37;;;;;;;5.12;3.35;;;;;;;1.14;70.34;102429.12;1711840;83;21555;-61
2022/03/16 08:35:09;;;;;;;5.58;3.40;;;;;;;1.21;69.42;102433.51;1711585;83;21086;-61
2022/03/16 08:37:37;;;;;;;4.65;2.90;;;;;;;0.98;69.39;102429.13;1712513;84;21063;-60
2022/03/16 08:40:07;;;;;;;5.33;3.37;;;;;;;1.28;69.21;102428.17;1712629;83;21027;-61
2022/03/16 08:42:35;;;;;;;5.78;3.50;;;;;;;1.48;68.18;102419.40;1712546;83;21578;-60
2022/03/16 08:45:04;;;;;;;8.93;4.50;;;;;;;1.41;66.63;102422.59;1712605;84;21055;-60
2022/03/16 08:47:32;;;;;;;5.45;3.50;;;;;;;1.67;67.81;102424.49;1712230;83;21079;-60
2022/03/16 08:50:01;;;;;;;5.33;3.52;;;;;;;1.57;67.58;102422.56;1712465;83;21047;-60
2022/03/16 08:52:29;;;;;;;6.10;3.70;;;;;;;1.74;67.51;102414.91;1712306;83;20995;-60
2022/03/16 08:54:56;;;;;;;6.40;3.60;;;;;;;1.87;65.40;102407.18;1712391;83;21047;-61
2022/03/16 08:57:24;;;;;;;5.65;2.67;;;;;;;2.57;65.34;102401.84;1712246;83;21079;-61
2022/03/16 08:59:54;;;;;;;7.33;2.27;;;;;;;2.91;61.80;102402.06;1712330;83;21860;-61
2022/03/16 09:02:23;;;;;;;5.03;3.22;;;;;;;3.14;60.75;102393.98;1712334;83;21008;-62
2022/03/16 09:04:53;;;;;;;5.83;3.02;;;;;;;3.06;60.77;102399.35;1712380;83;21102;-62
2022/03/16 09:07:21;;;;;;;4.60;2.98;;;;;;;2.55;61.42;102416.22;1712563;83;21007;-61
2022/03/16 09:09:48;;;;;;;6.42;3.35;;;;;;;2.31;62.25;102414.03;1712205;83;21694;-60
2022/03/16 09:12:17;;;;;;;6.60;3.22;;;;;;;2.88;61.74;102408.78;1712466;83;21036;-61
2022/03/16 09:14:45;;;;;;;3.10;2.37;;;;;;;2.88;61.74;102408.78;1712371;84;21508;-61
2022/03/16 09:17:14;;;;;;;5.28;2.80;;;;;;;2.75;59.52;102414.06;1712347;84;21128;-61
2022/03/16 09:19:41;;;;;;;5.78;2.80;;;;;;;2.84;59.77;102409.16;1712615;83;21036;-62
2022/03/16 09:22:07;;;;;;;5.05;2.42;;;;;;;2.84;59.77;102409.16;1712438;83;21119;-61
2022/03/16 09:24:34;;;;;;;6.30;2.77;;;;;;;2.49;58.63;102418.63;1712469;83;21483;-61
2022/03/16 09:27:02;;;;;;;4.58;2.45;;;;;;;2.49;58.99;102421.17;1712370;84;21086;-61
2022/03/16 09:29:29;;;;;;;5.03;2.45;;;;;;;2.06;58.17;102426.21;1712583;84;21039;-61
2022/03/16 09:31:57;;;;;;;7.67;2.70;;;;;;;2.06;58.17;102426.21;1712352;83;21043;-61
2022/03/16 09:34:24;;;;;;;6.30;2.80;;;;;;;1.96;58.87;102420.48;1712550;84;21079;-61
2022/03/16 09:36:51;;;;;;;7.28;2.80;;;;;;;1.95;59.13;102418.37;1712355;84;21048;-61
2022/03/16 09:39:18;;;;;;;5.70;2.40;;;;;;;2.25;58.66;102415.17;1712452;83;21031;-61
2022/03/16 09:41:47;;;;;;;3.87;2.27;;;;;;;2.42;58.36;102423.17;1712382;84;21035;-61
2022/03/16 09:44:16;;;;;;;3.42;2.30;;;;;;;2.29;56.61;102426.73;1712243;84;21095;-60
2022/03/16 09:46:46;;;;;;;4.35;2.67;;;;;;;2.64;55.55;102420.64;1712568;83;21117;-61
2022/03/16 09:49:18;;;;;;;7.72;3.33;;;;;;;2.64;55.55;102420.64;1712663;84;21058;-61
2022/03/16 09:51:47;;;;;;;6.33;2.55;;;;;;;2.71;55.77;102408.05;1712604;83;21031;-61
2022/03/16 09:54:16;;;;;;;3.90;2.67;;;;;;;2.71;55.77;102408.05;1712495;83;21063;-61
2022/03/16 09:56:46;;;;;;;4.90;2.55;;;;;;;2.65;55.55;102413.02;1712699;84;21018;-62
2022/03/16 09:59:15;;;;;;;5.12;2.98;;;;;;;2.70;55.83;102413.98;1712544;84;21541;-61
2022/03/16 10:01:45;;;;;;;4.47;2.35;;;;;;;3.11;55.74;102408.78;1712570;84;21063;-61
2022/03/16 10:04:17;;;;;;;4.95;2.60;;;;;;;3.05;55.44;102407.41;1712356;83;21094;-61
2022/03/16 10:06:47;;;;;;;4.90;2.55;;;;;;;3.05;55.44;102407.41;1697431;84;21031;-62
2022/03/16 10:15:20;;;;;;;5.83;2.60;;;;;;;3.87;53.29;102399.78;1712798;84;21039;-62
2022/03/16 10:18:02;;;;;;;6.40;2.77;;;;;;;3.54;52.61;102403.55;1712224;83;21059;-61
2022/03/16 10:20:39;;;;;;;4.42;2.80;;;;;;;3.30;53.70;102394.67;1712606;83;20980;-62
2022/03/16 10:23:20;;;;;;;4.78;2.75;;;;;;;3.26;53.50;102392.06;1712420;84;21080;-61
2022/03/16 10:25:53;;;;;;;5.10;2.50;;;;;;;3.04;53.42;102380.66;1712228;84;21070;-61
2022/03/16 10:28:29;;;;;;;6.78;2.40;;;;;;;3.12;53.14;102396.91;1712554;84;20996;-60
2022/03/16 10:31:06;;;;;;;5.70;2.42;;;;;;;2.83;54.46;102389.63;1712580;84;21008;-61
2022/03/16 10:33:39;;;;;;;7.40;2.60;;;;;;;2.98;55.53;102392.46;1712234;83;21071;-60
2022/03/16 10:36:15;;;;;;;4.25;2.77;;;;;;;2.99;54.65;102394.16;1712304;83;20988;-60
2022/03/16 10:38:58;;;;;;;5.15;2.75;;;;;;;2.80;55.46;102390.86;1712461;84;21015;-60
2022/03/16 10:47:24;;;;;;;6.50;3.20;;;;;;;2.47;56.81;102388.09;1712338;83;21090;-60
2022/03/16 10:50:07;;;;;;;11.12;3.80;;;;;;;2.22;57.30;102388.45;1712467;83;21019;-60
2022/03/16 10:52:36;;;;;;;;;;;;;;;2.06;57.69;102378.38;1715025;83;21067;-60
2022/03/16 10:55:06;;;;;;;5.25;3.30;;;;;;;2.76;56.68;102377.64;1712289;83;20407;-61
2022/03/16 10:57:34;;;;;;;7.35;3.65;;;;;;;3.35;55.51;102370.16;1712441;83;21074;-61
2022/03/16 11:00:04;;;;;;;5.80;3.47;;;;;;;3.55;54.25;102367.92;1712061;84;21082;-61
2022/03/16 11:02:34;;;;;;;10.60;4.65;;;;;;;3.55;52.79;102355.20;1712526;83;21087;-61
2022/03/16 11:05:01;;;;;;;7.15;4.30;;;;;;;3.68;51.97;102364.28;1712195;84;21048;-60
2022/03/16 11:07:30;;;;;;;12.30;6.67;;;;;;;3.53;53.30;102359.84;1699281;84;21040;-61
2022/03/16 11:09:58;;;;;;;13.40;6.90;;;;;;;3.08;53.39;102369.70;1712397;84;21040;-61
2022/03/16 11:15:14;;;;;;;19.40;9.73;;;;;;;2.36;55.57;102356.13;1712510;83;21036;-60
2022/03/16 11:17:43;;;;;;;24.57;12.10;;;;;;;2.45;55.05;102360.52;1712237;83;21574;-60
2022/03/16 11:20:13;;;;;;;25.27;12.63;;;;;;;2.40;54.31;102355.77;1699165;84;21039;-61
2022/03/16 11:25:45;;;;;;;18.42;8.40;;;;;;;2.95;52.56;102345.75;1712519;83;21047;-60
2022/03/16 11:28:16;;;;;;;16.85;8.75;;;;;;;3.71;52.13;102342.66;1712236;83;21067;-60
2022/03/16 11:30:46;;;;;;;13.32;6.95;;;;;;;3.61;51.98;102343.83;1712453;83;21027;-61
2022/03/16 11:33:15;;;;;;;8.53;5.47;;;;;;;3.35;53.09;102344.70;1712442;84;21035;-61
2022/03/16 11:35:45;;;;;;;8.68;4.40;;;;;;;3.11;54.13;102354.08;1712203;83;21000;-61
2022/03/16 11:38:15;;;;;;;6.40;3.80;;;;;;;3.01;55.14;102343.31;1712595;84;21534;-60